Terminal Aerodrome Forecast
Issued by NWS Grand Forks, ND

Home | Current Version | Previous Version | Graphics & Text | Print | Product List | Glossary On
Versions: 1 2 3 4 5 6 7 8 9 10 11 12 13 14 15 16 17 18
576
FTUS43 KFGF 152003 AAA
TAFGFK
TAF AMD
KGFK 152003Z 1520/1618 16009KT P6SM -SN OVC015
     FM152200 14007KT 3SM -SN OVC015
     FM160600 11007KT P6SM OVC015
     FM161000 10005KT P6SM OVC010
     FM161700 VRB03KT P6SM BKN025=

USA.gov is the U.S. government's official web portal to all federal, state and local government web resources and services.